createdAt,value
2016-05-29T00:00:35.026Z,88.99
2016-05-29T00:01:47.313Z,88.8
2016-05-29T00:02:35.001Z,88.8
2016-05-29T00:03:34.971Z,88.8
2016-05-29T00:04:34.959Z,88.32
2016-05-29T00:05:34.790Z,88.7
2016-05-29T00:06:34.918Z,88.61
2016-05-29T00:07:34.889Z,88.13
2016-05-29T00:08:34.876Z,88.8
2016-05-29T00:09:34.863Z,88.8
2016-05-29T00:10:34.834Z,88.99
2016-05-29T00:11:34.822Z,88.8
2016-05-29T00:12:34.792Z,89.09
2016-05-29T00:13:34.781Z,89.18
2016-05-29T00:14:34.767Z,88.8
2016-05-29T00:15:34.738Z,88.8
2016-05-29T00:16:34.553Z,88.61
2016-05-29T00:17:34.697Z,88.7
2016-05-29T00:18:34.684Z,88.23
2016-05-29T00:19:34.672Z,88.85
2016-05-29T00:20:34.486Z,88.66
2016-05-29T00:21:34.630Z,88.85
2016-05-29T00:22:34.602Z,89.33
2016-05-29T00:23:34.588Z,89.14
2016-05-29T00:24:34.560Z,89.43
2016-05-29T00:25:34.531Z,89.66
2016-05-29T00:26:34.518Z,89.9
2016-05-29T00:27:34.521Z,89.81
2016-05-29T00:28:34.476Z,90.43
2016-05-29T00:29:34.463Z,90.53
2016-05-29T00:30:34.435Z,90.05
2016-05-29T00:31:34.422Z,90.14
2016-05-29T00:32:34.424Z,90.14
2016-05-29T00:33:34.224Z,90.14
2016-05-29T00:34:34.368Z,90.43
2016-05-29T00:35:35.590Z,89.95
2016-05-29T00:36:34.326Z,89.57
2016-05-29T00:37:34.298Z,89.47
2016-05-29T00:38:34.284Z,89.86
2016-05-29T00:39:34.287Z,89.66
2016-05-29T00:40:34.243Z,89.09
2016-05-29T00:41:34.215Z,88.7
2016-05-29T00:42:34.201Z,88.51
2016-05-29T00:43:34.173Z,88.99
2016-05-29T00:44:34.161Z,88.99
2016-05-29T00:45:34.131Z,88.8
2016-05-29T00:46:34.119Z,88.9
2016-05-29T00:47:34.106Z,89.18
2016-05-29T00:48:34.077Z,89.18
2016-05-29T00:49:33.908Z,88.99
2016-05-29T00:50:34.052Z,88.9
2016-05-29T00:51:34.022Z,88.9
2016-05-29T00:52:33.995Z,88.99
2016-05-29T00:53:33.981Z,88.51
2016-05-29T00:54:33.969Z,88.9
2016-05-29T00:55:33.940Z,89.18
2016-05-29T00:56:33.927Z,88.51
2016-05-29T00:57:33.913Z,88.42
2016-05-29T00:58:33.886Z,89.09
2016-05-29T00:59:33.857Z,88.9
2016-05-29T01:00:33.843Z,89.09
2016-05-29T01:01:33.816Z,88.8
2016-05-29T01:02:33.802Z,88.7
2016-05-29T01:03:33.790Z,88.8
2016-05-29T01:04:33.760Z,88.99
2016-05-29T01:05:34.513Z,88.7
2016-05-29T01:06:33.735Z,88.9
2016-05-29T01:07:33.707Z,89.09
2016-05-29T01:08:33.678Z,89.09
2016-05-29T01:09:33.665Z,89.57
2016-05-29T01:10:33.636Z,89.86
2016-05-29T01:11:33.623Z,90.09
2016-05-29T01:12:33.611Z,90.47
2016-05-29T01:13:33.581Z,91.14
2016-05-29T01:14:33.569Z,91.49
2016-05-29T01:15:33.540Z,91.91
2016-05-29T01:16:33.512Z,91.86
2016-05-29T01:17:33.499Z,93.02
2016-05-29T01:18:33.486Z,93.73
2016-05-29T01:19:33.473Z,93.88
2016-05-29T01:20:33.444Z,94.59
2016-05-29T01:21:33.416Z,95.51
2016-05-29T01:22:33.403Z,95.51
2016-05-29T01:23:33.390Z,96.08
2016-05-29T01:24:33.361Z,97.52
2016-05-29T01:25:33.333Z,97.14
2016-05-29T01:26:33.320Z,98.19
2016-05-29T01:27:33.307Z,97.52
2016-05-29T01:28:33.279Z,97.71
2016-05-29T01:29:33.266Z,97.52
2016-05-29T01:30:33.253Z,97.9
2016-05-29T01:31:33.224Z,97.8
2016-05-29T01:32:33.227Z,98.47
2016-05-29T01:33:33.183Z,98.28
2016-05-29T01:34:33.154Z,98.67
2016-05-29T01:35:33.157Z,99.15
2016-05-29T01:36:33.129Z,99.99
2016-05-29T01:37:33.115Z,99.99
2016-05-29T01:38:33.087Z,99.99
2016-05-29T01:39:33.059Z,99.99
2016-05-29T01:40:33.045Z,99.99
2016-05-29T01:41:33.017Z,99.99
2016-05-29T01:42:33.004Z,99.99
2016-05-29T01:43:32.975Z,99.99
2016-05-29T01:44:32.962Z,99.99
2016-05-29T01:45:32.950Z,99.99
2016-05-29T01:46:32.937Z,99.99
2016-05-29T01:47:32.908Z,99.99
2016-05-29T01:48:32.879Z,99.99
2016-05-29T01:49:32.866Z,99.99
2016-05-29T01:50:32.853Z,99.99
2016-05-29T01:51:32.825Z,99.99
2016-05-29T01:52:32.796Z,99.99
2016-05-29T01:53:32.783Z,99.99
2016-05-29T01:54:32.599Z,99.99
2016-05-29T01:55:32.741Z,99.99
2016-05-29T01:56:32.713Z,99.99
2016-05-29T01:57:32.544Z,99.99
2016-05-29T01:58:32.687Z,99.99
2016-05-29T01:59:32.659Z,99.99
2016-05-29T02:00:32.661Z,99.99
2016-05-29T02:01:32.618Z,99.99
2016-05-29T02:02:32.604Z,99.99
2016-05-29T02:03:32.576Z,99.99
2016-05-29T02:04:32.579Z,99.99
2016-05-29T02:05:33.269Z,99.99
2016-05-29T02:06:32.522Z,99.99
2016-05-29T02:07:32.508Z,99.99
2016-05-29T02:08:32.480Z,99.99
2016-05-29T02:09:32.452Z,99.99
2016-05-29T02:10:32.438Z,99.99
2016-05-29T02:11:32.425Z,99.99
2016-05-29T02:12:32.398Z,99.99
2016-05-29T02:13:32.384Z,99.99
2016-05-29T02:14:32.356Z,99.99
2016-05-29T02:15:32.342Z,99.99
2016-05-29T02:16:32.314Z,99.99
2016-05-29T02:17:32.301Z,99.99
2016-05-29T02:18:32.273Z,99.99
2016-05-29T02:19:32.259Z,99.99
2016-05-29T02:20:32.872Z,99.99
2016-05-29T02:21:32.217Z,99.99
2016-05-29T02:22:32.205Z,99.99
2016-05-29T02:23:32.177Z,99.99
2016-05-29T02:24:32.163Z,99.99
2016-05-29T02:25:32.135Z,99.99
2016-05-29T02:26:32.122Z,99.99
2016-05-29T02:27:32.109Z,99.99
2016-05-29T02:28:32.080Z,99.99
2016-05-29T02:29:32.068Z,99.99
2016-05-29T02:30:32.039Z,99.99
2016-05-29T02:31:32.010Z,99.99
2016-05-29T02:32:31.997Z,99.99
2016-05-29T02:33:31.969Z,99.99
2016-05-29T02:34:31.972Z,99.99
2016-05-29T02:35:31.943Z,99.99
2016-05-29T02:36:31.915Z,99.99
2016-05-29T02:37:31.901Z,99.99
2016-05-29T02:38:31.717Z,99.99
2016-05-29T02:39:31.860Z,99.99
2016-05-29T02:40:31.847Z,99.99
2016-05-29T02:41:31.819Z,99.99
2016-05-29T02:42:31.649Z,99.99
2016-05-29T02:43:31.777Z,99.99
2016-05-29T02:44:31.592Z,99.99
2016-05-29T02:45:31.736Z,99.99
2016-05-29T02:46:31.707Z,99.99
2016-05-29T02:47:31.694Z,99.99
2016-05-29T02:48:31.682Z,99.99
2016-05-29T02:49:31.668Z,99.99
2016-05-29T02:50:31.656Z,99.99
2016-05-29T02:51:31.627Z,99.99
2016-05-29T02:52:31.582Z,99.99
2016-05-29T02:53:31.570Z,99.99
2016-05-29T02:54:31.556Z,99.99
2016-05-29T02:55:31.528Z,99.99
2016-05-29T02:56:31.515Z,99.99
2016-05-29T02:57:31.487Z,99.99
2016-05-29T02:58:31.474Z,99.99
2016-05-29T02:59:31.460Z,99.99
2016-05-29T03:00:31.433Z,99.99
2016-05-29T03:01:31.435Z,99.99
2016-05-29T03:02:31.407Z,99.99
2016-05-29T03:03:31.205Z,99.99
2016-05-29T03:04:31.349Z,99.99
2016-05-29T03:05:31.336Z,99.99
2016-05-29T03:06:31.307Z,99.99
2016-05-29T03:07:31.295Z,99.99
2016-05-29T03:08:31.266Z,99.99
2016-05-29T03:09:31.238Z,99.99
2016-05-29T03:10:31.224Z,99.99
2016-05-29T03:11:31.212Z,99.99
2016-05-29T03:12:31.027Z,99.99
2016-05-29T03:13:31.170Z,99.99
2016-05-29T03:14:31.142Z,99.99
2016-05-29T03:15:31.113Z,99.99
2016-05-29T03:16:31.101Z,99.99
2016-05-29T03:17:31.087Z,99.99
2016-05-29T03:18:31.058Z,99.99
2016-05-29T03:19:31.045Z,99.99
2016-05-29T03:20:30.908Z,99.99
2016-05-29T03:21:31.004Z,99.99
2016-05-29T03:22:30.975Z,99.99
2016-05-29T03:23:30.964Z,99.99
2016-05-29T03:24:30.934Z,99.99
2016-05-29T03:25:30.905Z,99.99
2016-05-29T03:26:30.909Z,99.99
2016-05-29T03:27:30.880Z,99.99
2016-05-29T03:28:30.852Z,99.99
2016-05-29T03:29:30.838Z,99.99
2016-05-29T03:30:30.825Z,99.99
2016-05-29T03:31:30.797Z,99.99
2016-05-29T03:32:30.783Z,99.99
2016-05-29T03:33:30.755Z,99.99
2016-05-29T03:34:30.727Z,99.99
2016-05-29T03:35:31.291Z,99.99
2016-05-29T03:36:30.701Z,99.99
2016-05-29T03:37:30.688Z,99.99
2016-05-29T03:38:30.488Z,99.99
2016-05-29T03:39:30.631Z,99.99
2016-05-29T03:40:30.618Z,99.99
2016-05-29T03:41:30.590Z,99.99
2016-05-29T03:42:30.592Z,99.99
2016-05-29T03:43:30.548Z,99.99
2016-05-29T03:44:30.535Z,99.99
2016-05-29T03:45:30.506Z,99.99
2016-05-29T03:46:30.493Z,99.99
2016-05-29T03:47:30.465Z,99.99
2016-05-29T03:48:30.295Z,99.99
2016-05-29T03:49:30.267Z,99.99
2016-05-29T03:50:30.411Z,99.99
2016-05-29T03:51:30.398Z,99.99
2016-05-29T03:52:30.369Z,99.99
2016-05-29T03:53:30.340Z,99.99
2016-05-29T03:54:30.328Z,99.99
2016-05-29T03:55:30.299Z,99.99
2016-05-29T03:56:30.286Z,99.99
2016-05-29T03:57:30.258Z,99.99
2016-05-29T03:58:30.244Z,99.99
2016-05-29T03:59:30.231Z,99.99
2016-05-29T04:00:30.202Z,99.99
2016-05-29T04:01:30.175Z,99.99
2016-05-29T04:02:30.161Z,99.99
2016-05-29T04:03:30.148Z,99.99
2016-05-29T04:04:30.120Z,99.99
2016-05-29T04:05:30.170Z,99.99
2016-05-29T04:06:30.094Z,99.99
2016-05-29T04:07:30.065Z,99.99
2016-05-29T04:08:30.053Z,99.99
2016-05-29T04:09:30.024Z,99.99
2016-05-29T04:10:29.995Z,99.99
2016-05-29T04:11:29.982Z,99.99
2016-05-29T04:12:29.954Z,99.99
2016-05-29T04:13:29.941Z,99.99
2016-05-29T04:14:29.912Z,99.99
2016-05-29T04:15:29.899Z,99.99
2016-05-29T04:16:29.871Z,99.99
2016-05-29T04:17:29.858Z,99.99
2016-05-29T04:18:29.845Z,99.99
2016-05-29T04:19:29.817Z,99.99
2016-05-29T04:20:29.804Z,99.99
2016-05-29T04:21:29.775Z,99.99
2016-05-29T04:22:29.762Z,99.99
2016-05-29T04:23:29.734Z,99.99
2016-05-29T04:24:29.720Z,99.99
2016-05-29T04:25:29.708Z,99.99
2016-05-29T04:26:29.678Z,99.99
2016-05-29T04:27:29.651Z,99.99
2016-05-29T04:28:29.669Z,99.99
2016-05-29T04:29:29.608Z,99.99
2016-05-29T04:30:29.596Z,99.99
2016-05-29T04:31:29.567Z,99.99
2016-05-29T04:32:29.555Z,99.99
2016-05-29T04:33:29.541Z,99.99
2016-05-29T04:34:29.514Z,99.99
2016-05-29T04:35:30.141Z,99.99
2016-05-29T04:36:30.222Z,99.99
2016-05-29T04:37:29.458Z,99.99
2016-05-29T04:38:29.429Z,99.99
2016-05-29T04:39:29.418Z,99.99
2016-05-29T04:40:29.404Z,99.99
2016-05-29T04:41:29.376Z,99.99
2016-05-29T04:42:29.346Z,99.99
2016-05-29T04:43:29.179Z,99.99
2016-05-29T04:44:29.321Z,99.99
2016-05-29T04:45:29.292Z,99.99
2016-05-29T04:46:29.280Z,99.99
2016-05-29T04:47:29.095Z,99.99
2016-05-29T04:48:29.238Z,99.99
2016-05-29T04:49:29.210Z,99.99
2016-05-29T04:50:29.493Z,99.99
2016-05-29T04:51:29.637Z,99.99
2016-05-29T04:52:29.155Z,99.99
2016-05-29T04:53:29.142Z,99.99
2016-05-29T04:54:29.114Z,99.99
2016-05-29T04:55:29.101Z,99.99
2016-05-29T04:56:29.072Z,99.99
2016-05-29T04:57:29.059Z,99.99
2016-05-29T04:58:29.047Z,99.99
2016-05-29T04:59:29.017Z,99.99
2016-05-29T05:00:28.833Z,99.99
2016-05-29T05:01:28.977Z,99.99
2016-05-29T05:02:28.964Z,99.99
2016-05-29T05:03:28.950Z,99.99
2016-05-29T05:04:28.922Z,99.99
2016-05-29T05:05:28.908Z,99.99
2016-05-29T05:06:29.255Z,99.99
2016-05-29T05:07:28.868Z,99.99
2016-05-29T05:08:28.838Z,99.99
2016-05-29T05:09:28.827Z,99.99
2016-05-29T05:10:28.797Z,99.99
2016-05-29T05:11:28.785Z,99.99
2016-05-29T05:12:28.615Z,99.99
2016-05-29T05:13:28.743Z,99.99
2016-05-29T05:14:28.715Z,99.99
2016-05-29T05:15:28.717Z,99.99
2016-05-29T05:16:28.689Z,99.99
2016-05-29T05:17:28.660Z,99.99
2016-05-29T05:18:28.632Z,99.99
2016-05-29T05:19:28.634Z,99.99
2016-05-29T05:20:29.011Z,99.99
2016-05-29T05:21:28.577Z,99.99
2016-05-29T05:22:28.564Z,99.99
2016-05-29T05:23:28.536Z,99.99
2016-05-29T05:24:28.366Z,99.99
2016-05-29T05:25:28.338Z,99.99
2016-05-29T05:26:28.497Z,99.99
2016-05-29T05:27:28.467Z,99.99
2016-05-29T05:28:28.456Z,99.99
2016-05-29T05:29:28.427Z,99.99
2016-05-29T05:30:28.398Z,99.99
2016-05-29T05:31:28.400Z,99.99
2016-05-29T05:32:28.356Z,99.99
2016-05-29T05:33:28.344Z,99.99
2016-05-29T05:34:28.330Z,99.99
2016-05-29T05:35:28.818Z,99.99
2016-05-29T05:36:28.133Z,99.99
2016-05-29T05:37:28.120Z,99.99
2016-05-29T05:38:28.263Z,99.99
2016-05-29T05:39:28.219Z,99.99
2016-05-29T05:40:28.207Z,99.99
2016-05-29T05:41:28.177Z,99.99
2016-05-29T05:42:28.165Z,99.99
2016-05-29T05:43:28.151Z,99.99
2016-05-29T05:44:28.123Z,99.99
2016-05-29T05:45:28.110Z,99.99
2016-05-29T05:46:28.082Z,99.99
2016-05-29T05:47:28.068Z,99.99
2016-05-29T05:48:28.056Z,99.99
2016-05-29T05:49:28.027Z,99.99
2016-05-29T05:50:28.014Z,99.99
2016-05-29T05:51:27.830Z,99.99
2016-05-29T05:52:27.817Z,99.99
2016-05-29T05:53:27.944Z,99.99
2016-05-29T05:54:27.932Z,99.99
2016-05-29T05:55:27.903Z,99.99
2016-05-29T05:56:27.889Z,99.99
2016-05-29T05:57:27.861Z,99.99
2016-05-29T05:58:27.848Z,99.99
2016-05-29T05:59:27.836Z,99.99
2016-05-29T06:00:27.806Z,99.99
2016-05-29T06:01:27.794Z,99.99
2016-05-29T06:02:27.765Z,99.99
2016-05-29T06:03:27.769Z,99.99
2016-05-29T06:04:27.583Z,99.99
2016-05-29T06:05:27.727Z,99.99
2016-05-29T06:06:27.541Z,99.99
2016-05-29T06:07:27.670Z,99.99
2016-05-29T06:08:27.657Z,99.99
2016-05-29T06:09:27.627Z,99.99
2016-05-29T06:10:27.615Z,99.99
2016-05-29T06:11:27.618Z,99.99
2016-05-29T06:12:27.574Z,99.99
2016-05-29T06:13:27.560Z,99.99
2016-05-29T06:14:27.532Z,99.99
2016-05-29T06:15:27.519Z,99.99
2016-05-29T06:16:27.506Z,99.99
2016-05-29T06:17:27.477Z,99.99
2016-05-29T06:18:27.449Z,99.99
2016-05-29T06:19:27.452Z,99.99
2016-05-29T06:20:27.423Z,99.99
2016-05-29T06:21:27.395Z,99.99
2016-05-29T06:22:27.381Z,99.99
2016-05-29T06:23:27.353Z,99.91
2016-05-29T06:24:27.340Z,99.99
2016-05-29T06:25:27.311Z,99.73
2016-05-29T06:26:27.298Z,99.77
2016-05-29T06:27:27.270Z,99.87
2016-05-29T06:28:27.273Z,99.29
2016-05-29T06:29:27.088Z,99.29
2016-05-29T06:30:27.075Z,99.29
2016-05-29T06:31:27.203Z,99.01
2016-05-29T06:32:27.175Z,99.1
2016-05-29T06:33:27.161Z,98.14
2016-05-29T06:34:27.147Z,97.56
2016-05-29T06:35:27.730Z,97.47
2016-05-29T06:36:27.107Z,97.38
2016-05-29T06:37:26.938Z,96.75
2016-05-29T06:38:27.065Z,96.61
2016-05-29T06:39:27.037Z,96.37
2016-05-29T06:40:27.024Z,96.85
2016-05-29T06:41:26.854Z,95.7
2016-05-29T06:42:26.999Z,96.13
2016-05-29T06:43:26.969Z,96.51
2016-05-29T06:44:26.956Z,95.55
2016-05-29T06:45:26.943Z,96.13
2016-05-29T06:46:26.916Z,96.13
2016-05-29T06:47:26.902Z,96.03
2016-05-29T06:48:26.873Z,95.17
2016-05-29T06:49:26.860Z,95.75
2016-05-29T06:50:26.847Z,95.84
2016-05-29T06:51:27.273Z,95.36
2016-05-29T06:52:26.806Z,94.98
2016-05-29T06:53:26.793Z,93.54
2016-05-29T06:54:26.609Z,94.4
2016-05-29T06:55:26.752Z,94.59
2016-05-29T06:56:26.739Z,94.31
2016-05-29T06:57:26.709Z,95.36
2016-05-29T06:58:26.698Z,95.45
2016-05-29T06:59:26.669Z,95.6
2016-05-29T07:00:26.656Z,96.18
2016-05-29T07:01:26.642Z,95.79
2016-05-29T07:02:26.614Z,96.18
2016-05-29T07:03:26.601Z,95.7
2016-05-29T07:04:26.588Z,96.66
2016-05-29T07:05:26.575Z,97.04
2016-05-29T07:06:26.563Z,96.85
2016-05-29T07:07:26.519Z,96.85
2016-05-29T07:08:26.505Z,96.75
2016-05-29T07:09:26.492Z,96.94
2016-05-29T07:10:26.464Z,96.94
2016-05-29T07:11:26.451Z,96.94
2016-05-29T07:12:26.469Z,97.52
2016-05-29T07:13:26.425Z,97.28
2016-05-29T07:14:26.396Z,96.75
2016-05-29T07:15:26.383Z,96.18
2016-05-29T07:16:26.355Z,97.24
2016-05-29T07:17:26.342Z,96.56
2016-05-29T07:18:26.173Z,96.8
2016-05-29T07:19:26.301Z,96.56
2016-05-29T07:20:26.304Z,96.75
2016-05-29T07:21:26.103Z,97.14
2016-05-29T07:22:26.246Z,96.89
2016-05-29T07:23:26.233Z,96.94
2016-05-29T07:24:26.204Z,96.89
2016-05-29T07:25:26.192Z,96.7
2016-05-29T07:26:26.163Z,97.33
2016-05-29T07:27:26.150Z,97.38
2016-05-29T07:28:26.137Z,97.66
2016-05-29T07:29:26.109Z,97.76
2016-05-29T07:30:26.095Z,97.33
2016-05-29T07:31:26.083Z,97.42
2016-05-29T07:32:26.054Z,97.61
2016-05-29T07:33:26.041Z,96.66
2016-05-29T07:34:26.014Z,96.85
2016-05-29T07:35:26.656Z,96.37
2016-05-29T07:36:26.222Z,95.6
2016-05-29T07:37:25.958Z,96.56
2016-05-29T07:38:25.944Z,96.75
2016-05-29T07:39:25.933Z,96.27
2016-05-29T07:40:25.919Z,96.94
2016-05-29T07:41:25.875Z,97.04
2016-05-29T07:42:25.862Z,97.14
2016-05-29T07:43:25.850Z,96.75
2016-05-29T07:44:25.836Z,96.94
2016-05-29T07:45:25.807Z,95.94
2016-05-29T07:46:25.796Z,96.18
2016-05-29T07:47:25.766Z,96.03
2016-05-29T07:48:25.754Z,95.98
2016-05-29T07:49:25.724Z,96.18
2016-05-29T07:50:25.727Z,96.22
2016-05-29T07:51:25.559Z,95.94
2016-05-29T07:52:25.686Z,97.19
2016-05-29T07:53:25.673Z,96.13
2016-05-29T07:54:25.645Z,96.89
2016-05-29T07:55:25.616Z,96.94
2016-05-29T07:56:25.603Z,97.19
2016-05-29T07:57:25.590Z,97.42
2016-05-29T07:58:25.421Z,97.38
2016-05-29T07:59:25.548Z,97.47
2016-05-29T08:00:25.520Z,96.99
2016-05-29T08:01:25.523Z,96.61
2016-05-29T08:02:25.495Z,96.8
2016-05-29T08:03:25.466Z,97.09
2016-05-29T08:04:25.452Z,96.22
2016-05-29T08:05:25.580Z,97.09
2016-05-29T08:06:25.255Z,97.09
2016-05-29T08:07:25.398Z,97.57
2016-05-29T08:08:25.385Z,97.19
2016-05-29T08:09:25.357Z,98
2016-05-29T08:10:25.344Z,98.29
2016-05-29T08:11:25.316Z,97.28
2016-05-29T08:12:25.318Z,97.57
2016-05-29T08:13:25.289Z,97.76
2016-05-29T08:14:25.276Z,98.05
2016-05-29T08:15:25.249Z,97.91
2016-05-29T08:16:25.235Z,98
2016-05-29T08:17:25.065Z,98.1
2016-05-29T08:18:25.194Z,98.38
2016-05-29T08:19:25.180Z,98.48
2016-05-29T08:20:25.168Z,98
2016-05-29T08:21:25.139Z,98.19
2016-05-29T08:22:25.127Z,98.86
2016-05-29T08:23:25.098Z,98.1
2016-05-29T08:24:25.085Z,98.29
2016-05-29T08:25:25.056Z,98.67
2016-05-29T08:26:25.043Z,98.38
2016-05-29T08:27:25.053Z,98.58
2016-05-29T08:28:25.046Z,98.19
2016-05-29T08:29:25.056Z,97.81
2016-05-29T08:30:25.064Z,98.38
2016-05-29T08:31:25.059Z,97.81
2016-05-29T08:32:25.069Z,98.1
2016-05-29T08:33:25.033Z,98.58
2016-05-29T08:34:24.872Z,98.86
2016-05-29T08:35:24.867Z,99.1
2016-05-29T08:36:25.738Z,99.49
2016-05-29T08:37:25.024Z,99.77
2016-05-29T08:38:24.968Z,99.99
2016-05-29T08:39:24.958Z,99.99
2016-05-29T08:40:24.948Z,99.99
2016-05-29T08:41:24.922Z,99.99
2016-05-29T08:42:24.910Z,99.99
2016-05-29T08:43:24.742Z,99.99
2016-05-29T08:44:24.871Z,99.99
2016-05-29T08:45:24.874Z,99.99
2016-05-29T08:46:24.830Z,99.68
2016-05-29T08:47:24.817Z,99.92
2016-05-29T08:48:24.805Z,98.82
2016-05-29T08:49:24.777Z,99.68
2016-05-29T08:50:25.124Z,99.05
2016-05-29T08:51:24.768Z,99.92
2016-05-29T08:52:24.724Z,99.54
2016-05-29T08:53:24.711Z,99.05
2016-05-29T08:54:24.698Z,98.67
2016-05-29T08:55:24.671Z,98.72
2016-05-29T08:56:24.658Z,97.57
2016-05-29T08:57:24.645Z,97.96
2016-05-29T08:58:24.617Z,98.34
2016-05-29T08:59:24.587Z,98.14
2016-05-29T09:00:24.575Z,97.19
2016-05-29T09:01:24.562Z,97.57
2016-05-29T09:02:24.550Z,97.09
2016-05-29T09:03:24.880Z,96.61
2016-05-29T09:04:24.351Z,96.89
2016-05-29T09:05:24.494Z,96.61
2016-05-29T09:06:25.294Z,97.47
2016-05-29T09:07:24.609Z,97.76
2016-05-29T09:08:24.425Z,97.14
2016-05-29T09:09:24.427Z,96.94
2016-05-29T09:10:24.399Z,95.6
2016-05-29T09:11:24.385Z,94.54
2016-05-29T09:12:24.358Z,94.06
2016-05-29T09:13:26.829Z,93.34
2016-05-29T09:14:24.175Z,92.76
2016-05-29T09:15:24.302Z,92.76
2016-05-29T09:16:24.290Z,91.99
2016-05-29T09:17:24.277Z,91.61
2016-05-29T09:18:24.248Z,91.13
2016-05-29T09:19:24.235Z,91.17
2016-05-29T09:20:24.223Z,90.02
2016-05-29T09:21:24.522Z,90.02
2016-05-29T09:22:24.181Z,88.62
2016-05-29T09:23:24.168Z,87.08
2016-05-29T09:24:23.999Z,87.12
2016-05-29T09:25:24.126Z,86.93
2016-05-29T09:26:24.114Z,85.2
2016-05-29T09:27:24.101Z,85
2016-05-29T09:28:24.087Z,85.14
2016-05-29T09:29:24.059Z,85.72
2016-05-29T09:30:24.046Z,86.35
2016-05-29T09:31:23.877Z,86.15
2016-05-29T09:32:24.020Z,82.29
2016-05-29T09:33:24.008Z,80.41
2016-05-29T09:34:23.995Z,80.12
2016-05-29T09:35:23.966Z,79.35
2016-05-29T09:36:24.062Z,79.77
2016-05-29T09:37:23.940Z,79.83
2016-05-29T09:38:23.911Z,77.46
2016-05-29T09:39:23.899Z,77.17
2016-05-29T09:40:23.885Z,79.62
2016-05-29T09:41:23.872Z,81.26
2016-05-29T09:42:23.703Z,81.45
2016-05-29T09:43:23.847Z,81.07
2016-05-29T09:44:23.833Z,79.97
2016-05-29T09:45:23.821Z,79.68
2016-05-29T09:46:23.793Z,78.75
2016-05-29T09:47:23.796Z,77.84
2016-05-29T09:48:25.844Z,77.21
2016-05-29T09:49:23.769Z,77.46
2016-05-29T09:50:23.819Z,77.46
2016-05-29T09:51:23.727Z,78.23
2016-05-29T09:52:27.449Z,77.46
2016-05-29T09:53:23.701Z,79.19
2016-05-29T09:54:23.674Z,80.35
2016-05-29T09:55:23.660Z,80.31
2016-05-29T09:56:23.648Z,80.99
2016-05-29T09:57:23.478Z,80.41
2016-05-29T09:58:23.621Z,80.02
2016-05-29T09:59:23.453Z,80.6
2016-05-29T10:00:23.595Z,80.02
2016-05-29T10:01:23.568Z,80.51
2016-05-29T10:02:23.570Z,80.89
2016-05-29T10:03:23.526Z,82.14
2016-05-29T10:04:27.294Z,82.01
2016-05-29T10:05:23.514Z,82.78
2016-05-29T10:06:23.487Z,81.14
2016-05-29T10:07:23.489Z,83.07
2016-05-29T10:08:23.461Z,83.31
2016-05-29T10:09:23.447Z,83.8
2016-05-29T10:10:24.795Z,84.14
2016-05-29T10:11:23.422Z,83.56
2016-05-29T10:12:23.394Z,83.41
2016-05-29T10:13:23.380Z,82.45
2016-05-29T10:14:23.368Z,83.8
2016-05-29T10:15:23.371Z,83.47
2016-05-29T10:16:23.341Z,83.99
2016-05-29T10:17:23.313Z,84.53
2016-05-29T10:18:23.299Z,84.33
2016-05-29T10:19:23.288Z,82.6
2016-05-29T10:20:23.274Z,83.47
2016-05-29T10:21:23.262Z,82.7
2016-05-29T10:22:23.248Z,82.31
2016-05-29T10:23:23.221Z,82.89
2016-05-29T10:24:23.207Z,84.62
2016-05-29T10:25:23.178Z,84.05
2016-05-29T10:26:23.166Z,83.85
2016-05-29T10:27:23.153Z,83.75
2016-05-29T10:28:23.140Z,84.43
2016-05-29T10:29:23.126Z,84.14
2016-05-29T10:30:23.129Z,83.66
2016-05-29T10:31:23.085Z,84.23
2016-05-29T10:32:23.072Z,83.56
2016-05-29T10:33:23.059Z,83.7
2016-05-29T10:34:23.047Z,83.08
2016-05-29T10:35:23.034Z,84.23
2016-05-29T10:36:23.005Z,83.66
2016-05-29T10:37:22.992Z,83.95
2016-05-29T10:38:22.978Z,84.05
2016-05-29T10:39:22.950Z,84.05
2016-05-29T10:40:22.938Z,83.56
2016-05-29T10:41:22.909Z,82.93
2016-05-29T10:42:22.911Z,82.74
2016-05-29T10:43:22.883Z,81.96
2016-05-29T10:44:22.870Z,83.41
2016-05-29T10:45:22.841Z,83.41
2016-05-29T10:46:22.829Z,81.96
2016-05-29T10:47:22.816Z,82.83
2016-05-29T10:48:22.819Z,82.35
2016-05-29T10:49:22.790Z,82.64
2016-05-29T10:50:22.761Z,81.96
2016-05-29T10:51:22.905Z,81.68
2016-05-29T10:52:22.735Z,81.2
2016-05-29T10:53:22.738Z,81.96
2016-05-29T10:54:22.710Z,81.77
2016-05-29T10:55:22.696Z,82.41
2016-05-29T10:56:22.527Z,83.66
2016-05-29T10:57:22.640Z,84.05
2016-05-29T10:58:22.626Z,84.23
2016-05-29T10:59:22.629Z,83.47
2016-05-29T11:00:22.445Z,83.75
2016-05-29T11:01:22.432Z,84.19
2016-05-29T11:02:22.418Z,84.77
2016-05-29T11:03:22.546Z,84.97
2016-05-29T11:04:22.534Z,85.64
2016-05-29T11:05:22.520Z,85.25
2016-05-29T11:06:23.008Z,85.44
2016-05-29T11:07:22.479Z,85.64
2016-05-29T11:08:22.466Z,85.93
2016-05-29T11:09:22.453Z,86.12
2016-05-29T11:10:22.425Z,86.79
2016-05-29T11:11:22.411Z,86.22
2016-05-29T11:12:22.399Z,86.12
2016-05-29T11:13:22.417Z,86.69
2016-05-29T11:14:22.372Z,86.6
2016-05-29T11:15:22.344Z,85.93
2016-05-29T11:16:22.330Z,86.99
2016-05-29T11:17:22.318Z,87.18
2016-05-29T11:18:22.290Z,87.18
2016-05-29T11:19:22.277Z,86.6
2016-05-29T11:20:22.263Z,86.99
2016-05-29T11:21:22.282Z,86.99
2016-05-29T11:22:22.222Z,87.18
2016-05-29T11:23:22.210Z,86.22
2016-05-29T11:24:22.181Z,86.51
2016-05-29T11:25:22.168Z,86.69
2016-05-29T11:26:22.154Z,86.12
2016-05-29T11:27:22.143Z,85.64
2016-05-29T11:28:22.113Z,87.37
2016-05-29T11:29:22.100Z,87.37
2016-05-29T11:30:22.088Z,87.95
2016-05-29T11:31:22.075Z,85.88
2016-05-29T11:32:22.046Z,86.69
2016-05-29T11:33:22.033Z,87.13
2016-05-29T11:34:22.020Z,86.69
2016-05-29T11:35:22.007Z,85.93
2016-05-29T11:36:21.839Z,85.16
2016-05-29T11:37:21.966Z,85.06
2016-05-29T11:38:21.797Z,85.93
2016-05-29T11:39:21.939Z,85.69
2016-05-29T11:40:21.912Z,85.74
2016-05-29T11:41:21.898Z,85.74
2016-05-29T11:42:21.870Z,86.12
2016-05-29T11:43:21.857Z,86.18
2016-05-29T11:44:21.688Z,86.46
2016-05-29T11:45:21.847Z,86.18
2016-05-29T11:46:21.802Z,85.69
2016-05-29T11:47:21.789Z,86.46
2016-05-29T11:48:21.777Z,87.23
2016-05-29T11:49:21.591Z,87.62
2016-05-29T11:50:21.735Z,87.48
2016-05-29T11:51:21.722Z,87.42
2016-05-29T11:52:21.709Z,87.19
2016-05-29T11:53:21.696Z,86.99
2016-05-29T11:54:21.668Z,86.65
2016-05-29T11:55:21.655Z,86.99
2016-05-29T11:56:21.626Z,87.13
2016-05-29T11:57:21.613Z,87.19
2016-05-29T11:58:21.601Z,87.96
2016-05-29T11:59:21.415Z,88.06
2016-05-29T12:00:21.574Z,88.24
2016-05-29T12:01:21.546Z,88.15
2016-05-29T12:02:21.533Z,87.76
2016-05-29T12:03:21.504Z,88.82
2016-05-29T12:04:21.492Z,88.73
2016-05-29T12:05:21.479Z,88.44
2016-05-29T12:06:21.465Z,89.4
2016-05-29T12:07:21.437Z,88.82
2016-05-29T12:08:21.425Z,88.34
2016-05-29T12:09:21.395Z,88.15
2016-05-29T12:10:21.383Z,88.53
2016-05-29T12:11:21.370Z,89.3
2016-05-29T12:12:21.341Z,89.54
2016-05-29T12:13:21.328Z,89.45
2016-05-29T12:14:21.316Z,89.74
2016-05-29T12:15:21.287Z,89.16
2016-05-29T12:16:21.274Z,89.26
2016-05-29T12:17:21.261Z,89.26
2016-05-29T12:18:21.232Z,90.12
2016-05-29T12:19:21.219Z,89.93
2016-05-29T12:20:21.207Z,88.87
2016-05-29T12:21:21.194Z,90.22
2016-05-29T12:22:21.180Z,89.54
2016-05-29T12:23:21.152Z,90.31
2016-05-29T12:24:21.138Z,90.12
2016-05-29T12:25:21.111Z,90.41
2016-05-29T12:26:21.098Z,90.99
2016-05-29T12:27:21.068Z,90.7
2016-05-29T12:28:21.056Z,90.7
2016-05-29T12:29:21.043Z,91.08
2016-05-29T12:30:20.859Z,91.37
2016-05-29T12:31:21.002Z,91.18
2016-05-29T12:32:20.989Z,91.85
2016-05-29T12:33:20.959Z,91.28
2016-05-29T12:34:20.947Z,90.8
2016-05-29T12:35:20.935Z,90.8
2016-05-29T12:36:21.078Z,91.08
2016-05-29T12:37:20.737Z,90.89
2016-05-29T12:38:20.880Z,90.22
2016-05-29T12:39:20.851Z,89.98
2016-05-29T12:40:20.838Z,89.98
2016-05-29T12:41:20.810Z,90.55
2016-05-29T12:42:20.797Z,89.78
2016-05-29T12:43:23.658Z,89.59
2016-05-29T12:44:20.771Z,89.11
2016-05-29T12:45:20.742Z,87.48
2016-05-29T12:46:20.730Z,88.48
2016-05-29T12:47:20.716Z,88.48
2016-05-29T12:48:20.688Z,88.73
2016-05-29T12:49:20.675Z,88.82
2016-05-29T12:50:20.663Z,88.44
2016-05-29T12:51:20.477Z,88.1
2016-05-29T12:52:20.621Z,87.29
2016-05-29T12:53:20.591Z,86.65
2016-05-29T12:54:20.580Z,86.65